sensor_id;sensor_type;location;lat;lon;timestamp;temperature;humidity
4596;DHT22;2310;49.978;8.742;2024-03-02T00:02:22;8.50;99.90
4596;DHT22;2310;49.978;8.742;2024-03-02T00:06:23;8.50;99.90
4596;DHT22;2310;49.978;8.742;2024-03-02T00:10:26;8.50;99.90
4596;DHT22;2310;49.978;8.742;2024-03-02T00:14:30;8.40;99.90
4596;DHT22;2310;49.978;8.742;2024-03-02T00:18:34;8.50;99.90
4596;DHT22;2310;49.978;8.742;2024-03-02T00:22:36;8.40;99.90
4596;DHT22;2310;49.978;8.742;2024-03-02T00:26:38;8.30;99.90
4596;DHT22;2310;49.978;8.742;2024-03-02T00:30:58;8.20;99.90
4596;DHT22;2310;49.978;8.742;2024-03-02T00:35:00;8.00;99.90
4596;DHT22;2310;49.978;8.742;2024-03-02T00:39:02;7.80;99.90
4596;DHT22;2310;49.978;8.742;2024-03-02T00:43:04;7.70;99.90
4596;DHT22;2310;49.978;8.742;2024-03-02T00:47:05;7.50;99.90
4596;DHT22;2310;49.978;8.742;2024-03-02T00:51:07;7.50;99.90
4596;DHT22;2310;49.978;8.742;2024-03-02T00:55:09;7.40;99.90
4596;DHT22;2310;49.978;8.742;2024-03-02T00:59:10;7.40;99.90
4596;DHT22;2310;49.978;8.742;2024-03-02T01:03:12;7.50;99.90
4596;DHT22;2310;49.978;8.742;2024-03-02T01:07:13;7.50;99.90
4596;DHT22;2310;49.978;8.742;2024-03-02T01:11:15;7.50;99.90
4596;DHT22;2310;49.978;8.742;2024-03-02T01:15:16;7.60;99.90
4596;DHT22;2310;49.978;8.742;2024-03-02T01:19:17;7.80;99.90
4596;DHT22;2310;49.978;8.742;2024-03-02T01:23:19;7.70;99.90
4596;DHT22;2310;49.978;8.742;2024-03-02T01:27:21;7.90;99.90
4596;DHT22;2310;49.978;8.742;2024-03-02T01:31:22;8.00;99.90
4596;DHT22;2310;49.978;8.742;2024-03-02T01:35:24;8.10;99.90
4596;DHT22;2310;49.978;8.742;2024-03-02T01:39:26;8.00;99.90
4596;DHT22;2310;49.978;8.742;2024-03-02T01:43:27;7.90;99.90
4596;DHT22;2310;49.978;8.742;2024-03-02T01:47:28;7.90;99.90
4596;DHT22;2310;49.978;8.742;2024-03-02T01:51:30;7.90;99.90
4596;DHT22;2310;49.978;8.742;2024-03-02T01:55:31;8.00;99.90
4596;DHT22;2310;49.978;8.742;2024-03-02T01:59:34;7.90;99.90
4596;DHT22;2310;49.978;8.742;2024-03-02T02:03:35;7.90;99.90
4596;DHT22;2310;49.978;8.742;2024-03-02T02:07:38;7.80;99.90
4596;DHT22;2310;49.978;8.742;2024-03-02T02:11:39;7.80;99.90
4596;DHT22;2310;49.978;8.742;2024-03-02T02:15:40;7.70;99.90
4596;DHT22;2310;49.978;8.742;2024-03-02T02:19:42;7.60;99.90
4596;DHT22;2310;49.978;8.742;2024-03-02T02:23:44;7.60;99.90
4596;DHT22;2310;49.978;8.742;2024-03-02T02:27:47;7.50;99.90
4596;DHT22;2310;49.978;8.742;2024-03-02T02:31:48;7.50;99.90
4596;DHT22;2310;49.978;8.742;2024-03-02T02:35:50;7.40;99.90
4596;DHT22;2310;49.978;8.742;2024-03-02T02:39:51;7.40;99.90
4596;DHT22;2310;49.978;8.742;2024-03-02T02:43:53;7.50;99.90
4596;DHT22;2310;49.978;8.742;2024-03-02T02:47:54;7.40;99.90
4596;DHT22;2310;49.978;8.742;2024-03-02T02:51:55;7.40;99.90
4596;DHT22;2310;49.978;8.742;2024-03-02T02:55:57;7.50;99.90
4596;DHT22;2310;49.978;8.742;2024-03-02T02:59:58;7.40;99.90
4596;DHT22;2310;49.978;8.742;2024-03-02T03:04:00;7.30;99.90
4596;DHT22;2310;49.978;8.742;2024-03-02T03:08:01;7.20;99.90
4596;DHT22;2310;49.978;8.742;2024-03-02T03:12:04;7.20;99.90
4596;DHT22;2310;49.978;8.742;2024-03-02T03:16:05;7.20;99.90
4596;DHT22;2310;49.978;8.742;2024-03-02T03:20:08;7.10;99.90
4596;DHT22;2310;49.978;8.742;2024-03-02T03:24:12;7.00;99.90
4596;DHT22;2310;49.978;8.742;2024-03-02T03:28:13;7.10;99.90
4596;DHT22;2310;49.978;8.742;2024-03-02T03:32:15;7.20;99.90
4596;DHT22;2310;49.978;8.742;2024-03-02T03:36:17;7.30;99.90
4596;DHT22;2310;49.978;8.742;2024-03-02T03:40:19;7.20;99.90
4596;DHT22;2310;49.978;8.742;2024-03-02T03:44:20;7.20;99.90
4596;DHT22;2310;49.978;8.742;2024-03-02T03:48:21;7.10;99.90
4596;DHT22;2310;49.978;8.742;2024-03-02T03:52:23;7.20;99.90
4596;DHT22;2310;49.978;8.742;2024-03-02T03:56:24;7.10;99.90
4596;DHT22;2310;49.978;8.742;2024-03-02T04:00:26;7.20;99.90
4596;DHT22;2310;49.978;8.742;2024-03-02T04:04:27;7.30;99.90
4596;DHT22;2310;49.978;8.742;2024-03-02T04:08:28;7.30;99.90
4596;DHT22;2310;49.978;8.742;2024-03-02T04:12:30;7.50;99.90
4596;DHT22;2310;49.978;8.742;2024-03-02T04:16:31;7.60;99.90
4596;DHT22;2310;49.978;8.742;2024-03-02T04:20:32;7.60;99.90
4596;DHT22;2310;49.978;8.742;2024-03-02T04:24:34;7.70;99.90
4596;DHT22;2310;49.978;8.742;2024-03-02T04:28:35;7.60;99.90
4596;DHT22;2310;49.978;8.742;2024-03-02T04:32:37;7.40;99.90
4596;DHT22;2310;49.978;8.742;2024-03-02T04:36:40;7.20;99.90
4596;DHT22;2310;49.978;8.742;2024-03-02T04:40:41;7.20;99.90
4596;DHT22;2310;49.978;8.742;2024-03-02T04:44:42;7.30;99.90
4596;DHT22;2310;49.978;8.742;2024-03-02T04:48:44;7.30;99.90
4596;DHT22;2310;49.978;8.742;2024-03-02T04:52:45;7.30;99.90
4596;DHT22;2310;49.978;8.742;2024-03-02T04:56:47;7.10;99.90
4596;DHT22;2310;49.978;8.742;2024-03-02T05:00:51;7.10;99.90
4596;DHT22;2310;49.978;8.742;2024-03-02T05:04:52;6.90;99.90
4596;DHT22;2310;49.978;8.742;2024-03-02T05:08:54;6.70;99.90
4596;DHT22;2310;49.978;8.742;2024-03-02T05:12:55;7.00;99.90
4596;DHT22;2310;49.978;8.742;2024-03-02T05:16:58;7.10;99.90
4596;DHT22;2310;49.978;8.742;2024-03-02T05:20:59;7.10;99.90
4596;DHT22;2310;49.978;8.742;2024-03-02T05:25:02;7.20;99.90
4596;DHT22;2310;49.978;8.742;2024-03-02T05:29:03;7.00;99.90
4596;DHT22;2310;49.978;8.742;2024-03-02T05:33:05;6.90;99.90
4596;DHT22;2310;49.978;8.742;2024-03-02T05:37:06;7.00;99.90
4596;DHT22;2310;49.978;8.742;2024-03-02T05:41:08;7.10;99.90
4596;DHT22;2310;49.978;8.742;2024-03-02T05:45:09;7.10;99.90
4596;DHT22;2310;49.978;8.742;2024-03-02T05:49:11;7.00;99.90
4596;DHT22;2310;49.978;8.742;2024-03-02T05:53:12;7.00;99.90
4596;DHT22;2310;49.978;8.742;2024-03-02T05:57:13;7.00;99.90
4596;DHT22;2310;49.978;8.742;2024-03-02T06:01:20;7.00;99.90
4596;DHT22;2310;49.978;8.742;2024-03-02T06:05:22;6.90;99.90
4596;DHT22;2310;49.978;8.742;2024-03-02T06:09:23;6.90;99.90
4596;DHT22;2310;49.978;8.742;2024-03-02T06:13:25;6.90;99.90
4596;DHT22;2310;49.978;8.742;2024-03-02T06:17:27;6.90;99.90
4596;DHT22;2310;49.978;8.742;2024-03-02T06:21:29;6.90;99.90
4596;DHT22;2310;49.978;8.742;2024-03-02T06:25:31;6.90;99.90
4596;DHT22;2310;49.978;8.742;2024-03-02T06:29:33;6.90;99.90
4596;DHT22;2310;49.978;8.742;2024-03-02T06:33:36;6.90;99.90
4596;DHT22;2310;49.978;8.742;2024-03-02T06:37:38;7.00;99.90
4596;DHT22;2310;49.978;8.742;2024-03-02T06:41:40;7.00;99.90
4596;DHT22;2310;49.978;8.742;2024-03-02T06:45:41;6.80;99.90
4596;DHT22;2310;49.978;8.742;2024-03-02T06:49:42;6.90;99.90
4596;DHT22;2310;49.978;8.742;2024-03-02T06:53:44;7.10;99.90
4596;DHT22;2310;49.978;8.742;2024-03-02T06:57:45;7.20;99.90
4596;DHT22;2310;49.978;8.742;2024-03-02T07:01:47;7.10;99.90
4596;DHT22;2310;49.978;8.742;2024-03-02T07:05:48;7.30;99.90
4596;DHT22;2310;49.978;8.742;2024-03-02T07:09:50;7.20;99.90
4596;DHT22;2310;49.978;8.742;2024-03-02T07:13:51;7.30;99.90
4596;DHT22;2310;49.978;8.742;2024-03-02T07:17:53;7.30;99.90
4596;DHT22;2310;49.978;8.742;2024-03-02T07:21:54;7.40;99.90
4596;DHT22;2310;49.978;8.742;2024-03-02T07:25:56;7.30;99.90
4596;DHT22;2310;49.978;8.742;2024-03-02T07:29:59;7.40;99.90
4596;DHT22;2310;49.978;8.742;2024-03-02T07:34:01;7.30;99.90
4596;DHT22;2310;49.978;8.742;2024-03-02T07:38:03;7.20;99.90
4596;DHT22;2310;49.978;8.742;2024-03-02T07:42:05;7.20;99.90
4596;DHT22;2310;49.978;8.742;2024-03-02T07:46:07;7.10;99.90
4596;DHT22;2310;49.978;8.742;2024-03-02T07:50:09;7.30;99.90
4596;DHT22;2310;49.978;8.742;2024-03-02T07:54:10;7.60;99.90
4596;DHT22;2310;49.978;8.742;2024-03-02T07:58:12;7.80;99.90
4596;DHT22;2310;49.978;8.742;2024-03-02T08:02:14;8.00;99.90
4596;DHT22;2310;49.978;8.742;2024-03-02T08:06:16;8.50;99.90
4596;DHT22;2310;49.978;8.742;2024-03-02T08:10:19;9.30;99.90
4596;DHT22;2310;49.978;8.742;2024-03-02T08:14:20;10.00;99.90
4596;DHT22;2310;49.978;8.742;2024-03-02T08:18:22;10.60;99.90
4596;DHT22;2310;49.978;8.742;2024-03-02T08:22:23;10.70;99.90
4596;DHT22;2310;49.978;8.742;2024-03-02T08:26:28;10.80;99.90
4596;DHT22;2310;49.978;8.742;2024-03-02T08:30:32;10.70;99.90
4596;DHT22;2310;49.978;8.742;2024-03-02T08:34:34;10.90;99.90
4596;DHT22;2310;49.978;8.742;2024-03-02T08:38:36;11.20;99.90
4596;DHT22;2310;49.978;8.742;2024-03-02T08:42:37;11.30;99.90
4596;DHT22;2310;49.978;8.742;2024-03-02T08:46:39;11.40;99.90
4596;DHT22;2310;49.978;8.742;2024-03-02T08:50:41;11.10;99.90
4596;DHT22;2310;49.978;8.742;2024-03-02T08:54:42;11.30;99.90
4596;DHT22;2310;49.978;8.742;2024-03-02T08:58:44;11.50;99.90
4596;DHT22;2310;49.978;8.742;2024-03-02T09:02:45;11.70;99.90
4596;DHT22;2310;49.978;8.742;2024-03-02T09:06:46;11.80;99.90
4596;DHT22;2310;49.978;8.742;2024-03-02T09:10:48;12.10;99.90
4596;DHT22;2310;49.978;8.742;2024-03-02T09:14:49;11.90;99.90
4596;DHT22;2310;49.978;8.742;2024-03-02T09:18:50;12.00;99.90
4596;DHT22;2310;49.978;8.742;2024-03-02T09:22:52;12.00;99.90
4596;DHT22;2310;49.978;8.742;2024-03-02T09:26:53;12.30;99.90
4596;DHT22;2310;49.978;8.742;2024-03-02T09:30:55;12.40;99.90
4596;DHT22;2310;49.978;8.742;2024-03-02T09:34:58;12.40;99.90
4596;DHT22;2310;49.978;8.742;2024-03-02T09:39:00;12.60;99.90
4596;DHT22;2310;49.978;8.742;2024-03-02T09:43:02;12.70;99.90
4596;DHT22;2310;49.978;8.742;2024-03-02T09:47:06;12.70;99.90
4596;DHT22;2310;49.978;8.742;2024-03-02T09:51:08;12.90;99.90
4596;DHT22;2310;49.978;8.742;2024-03-02T09:55:11;13.00;99.90
4596;DHT22;2310;49.978;8.742;2024-03-02T09:59:13;13.00;99.90
4596;DHT22;2310;49.978;8.742;2024-03-02T10:03:18;13.40;99.90
4596;DHT22;2310;49.978;8.742;2024-03-02T10:07:20;13.60;99.90
4596;DHT22;2310;49.978;8.742;2024-03-02T10:11:30;13.50;99.90
4596;DHT22;2310;49.978;8.742;2024-03-02T10:15:36;13.40;99.90
4596;DHT22;2310;49.978;8.742;2024-03-02T10:19:44;13.60;99.90
4596;DHT22;2310;49.978;8.742;2024-03-02T10:23:45;14.00;99.90
4596;DHT22;2310;49.978;8.742;2024-03-02T10:27:50;14.40;99.90
4596;DHT22;2310;49.978;8.742;2024-03-02T10:31:51;14.40;99.90
4596;DHT22;2310;49.978;8.742;2024-03-02T10:35:52;14.20;97.30
4596;DHT22;2310;49.978;8.742;2024-03-02T10:39:54;14.30;99.90
4596;DHT22;2310;49.978;8.742;2024-03-02T10:43:56;14.60;96.00
4596;DHT22;2310;49.978;8.742;2024-03-02T10:48:01;14.50;99.90
4596;DHT22;2310;49.978;8.742;2024-03-02T10:52:03;14.10;99.90
4596;DHT22;2310;49.978;8.742;2024-03-02T10:56:07;14.20;99.90
4596;DHT22;2310;49.978;8.742;2024-03-02T11:00:11;14.60;99.90
4596;DHT22;2310;49.978;8.742;2024-03-02T11:04:17;15.00;98.50
4596;DHT22;2310;49.978;8.742;2024-03-02T11:08:19;15.50;91.60
4596;DHT22;2310;49.978;8.742;2024-03-02T11:16:34;16.00;81.80
4596;DHT22;2310;49.978;8.742;2024-03-02T11:20:40;16.10;75.40
4596;DHT22;2310;49.978;8.742;2024-03-02T11:24:49;16.20;72.60
4596;DHT22;2310;49.978;8.742;2024-03-02T11:28:51;16.20;71.80
4596;DHT22;2310;49.978;8.742;2024-03-02T11:32:56;16.50;73.50
4596;DHT22;2310;49.978;8.742;2024-03-02T11:36:58;16.30;74.30
4596;DHT22;2310;49.978;8.742;2024-03-02T11:41:07;16.30;71.90
4596;DHT22;2310;49.978;8.742;2024-03-02T11:45:17;16.20;70.50
4596;DHT22;2310;49.978;8.742;2024-03-02T11:49:38;16.20;71.50
4596;DHT22;2310;49.978;8.742;2024-03-02T11:53:44;16.00;74.90
4596;DHT22;2310;49.978;8.742;2024-03-02T11:57:46;16.00;78.00
4596;DHT22;2310;49.978;8.742;2024-03-02T12:01:47;16.30;73.60
4596;DHT22;2310;49.978;8.742;2024-03-02T12:05:50;16.50;72.40
4596;DHT22;2310;49.978;8.742;2024-03-02T12:10:00;16.70;71.80
4596;DHT22;2310;49.978;8.742;2024-03-02T12:14:11;17.00;68.80
4596;DHT22;2310;49.978;8.742;2024-03-02T12:18:15;17.20;66.80
4596;DHT22;2310;49.978;8.742;2024-03-02T12:22:16;17.30;66.50
4596;DHT22;2310;49.978;8.742;2024-03-02T12:26:18;17.70;64.20
4596;DHT22;2310;49.978;8.742;2024-03-02T12:30:21;18.00;64.20
4596;DHT22;2310;49.978;8.742;2024-03-02T12:34:23;18.10;59.60
4596;DHT22;2310;49.978;8.742;2024-03-02T12:38:25;18.20;58.50
4596;DHT22;2310;49.978;8.742;2024-03-02T12:42:27;17.80;57.20
4596;DHT22;2310;49.978;8.742;2024-03-02T12:46:29;17.80;56.90
4596;DHT22;2310;49.978;8.742;2024-03-02T12:50:31;18.10;56.80
4596;DHT22;2310;49.978;8.742;2024-03-02T12:54:32;17.70;55.50
4596;DHT22;2310;49.978;8.742;2024-03-02T12:58:40;17.90;56.20
4596;DHT22;2310;49.978;8.742;2024-03-02T13:02:45;18.20;56.00
4596;DHT22;2310;49.978;8.742;2024-03-02T13:06:47;17.80;55.60
4596;DHT22;2310;49.978;8.742;2024-03-02T13:10:49;17.90;55.70
4596;DHT22;2310;49.978;8.742;2024-03-02T13:14:53;17.40;58.50
4596;DHT22;2310;49.978;8.742;2024-03-02T13:18:55;17.40;60.90
4596;DHT22;2310;49.978;8.742;2024-03-02T13:22:57;17.40;60.20
4596;DHT22;2310;49.978;8.742;2024-03-02T13:26:58;17.50;78.30
4596;DHT22;2310;49.978;8.742;2024-03-02T13:31:01;18.40;77.70
4596;DHT22;2310;49.978;8.742;2024-03-02T13:35:02;18.70;59.50
4596;DHT22;2310;49.978;8.742;2024-03-02T13:39:04;19.30;62.30
4596;DHT22;2310;49.978;8.742;2024-03-02T13:43:11;19.00;55.70
4596;DHT22;2310;49.978;8.742;2024-03-02T13:47:13;19.10;54.70
4596;DHT22;2310;49.978;8.742;2024-03-02T13:51:14;18.30;56.40
4596;DHT22;2310;49.978;8.742;2024-03-02T13:55:16;18.10;57.40
4596;DHT22;2310;49.978;8.742;2024-03-02T13:59:17;18.00;58.40
4596;DHT22;2310;49.978;8.742;2024-03-02T14:03:19;17.70;59.90
4596;DHT22;2310;49.978;8.742;2024-03-02T14:07:20;17.80;59.00
4596;DHT22;2310;49.978;8.742;2024-03-02T14:11:22;17.80;61.20
4596;DHT22;2310;49.978;8.742;2024-03-02T14:15:23;18.00;61.10
4596;DHT22;2310;49.978;8.742;2024-03-02T14:19:26;18.20;59.50
4596;DHT22;2310;49.978;8.742;2024-03-02T14:23:27;17.50;61.20
4596;DHT22;2310;49.978;8.742;2024-03-02T14:27:30;17.70;60.90
4596;DHT22;2310;49.978;8.742;2024-03-02T14:31:33;17.60;62.50
4596;DHT22;2310;49.978;8.742;2024-03-02T14:35:35;17.20;62.20
4596;DHT22;2310;49.978;8.742;2024-03-02T14:39:36;17.20;62.60
4596;DHT22;2310;49.978;8.742;2024-03-02T14:43:37;17.30;62.90
4596;DHT22;2310;49.978;8.742;2024-03-02T14:47:39;17.30;60.40
4596;DHT22;2310;49.978;8.742;2024-03-02T14:51:40;17.40;61.90
4596;DHT22;2310;49.978;8.742;2024-03-02T14:55:42;17.40;61.30
4596;DHT22;2310;49.978;8.742;2024-03-02T14:59:43;17.20;60.30
4596;DHT22;2310;49.978;8.742;2024-03-02T15:03:45;17.00;60.90
4596;DHT22;2310;49.978;8.742;2024-03-02T15:07:46;16.70;60.90
4596;DHT22;2310;49.978;8.742;2024-03-02T15:11:48;16.90;61.60
4596;DHT22;2310;49.978;8.742;2024-03-02T15:15:49;16.90;61.60
4596;DHT22;2310;49.978;8.742;2024-03-02T15:19:50;17.00;61.00
4596;DHT22;2310;49.978;8.742;2024-03-02T15:23:52;17.10;62.20
4596;DHT22;2310;49.978;8.742;2024-03-02T15:27:53;17.20;62.60
4596;DHT22;2310;49.978;8.742;2024-03-02T15:31:54;17.20;59.80
4596;DHT22;2310;49.978;8.742;2024-03-02T15:35:58;17.20;60.80
4596;DHT22;2310;49.978;8.742;2024-03-02T15:40:00;17.00;59.90
4596;DHT22;2310;49.978;8.742;2024-03-02T15:44:06;16.80;60.80
4596;DHT22;2310;49.978;8.742;2024-03-02T15:48:09;16.70;62.50
4596;DHT22;2310;49.978;8.742;2024-03-02T15:52:10;16.60;62.90
4596;DHT22;2310;49.978;8.742;2024-03-02T15:56:12;16.80;63.10
4596;DHT22;2310;49.978;8.742;2024-03-02T16:00:13;17.00;62.70
4596;DHT22;2310;49.978;8.742;2024-03-02T16:04:15;16.80;63.10
4596;DHT22;2310;49.978;8.742;2024-03-02T16:08:17;16.70;65.30
4596;DHT22;2310;49.978;8.742;2024-03-02T16:12:19;16.60;65.40
4596;DHT22;2310;49.978;8.742;2024-03-02T16:16:20;16.50;67.10
4596;DHT22;2310;49.978;8.742;2024-03-02T16:20:21;16.30;67.40
4596;DHT22;2310;49.978;8.742;2024-03-02T16:24:23;16.40;68.60
4596;DHT22;2310;49.978;8.742;2024-03-02T16:28:24;16.30;70.60
4596;DHT22;2310;49.978;8.742;2024-03-02T16:32:26;16.20;71.40
4596;DHT22;2310;49.978;8.742;2024-03-02T16:36:27;16.30;72.00
4596;DHT22;2310;49.978;8.742;2024-03-02T16:40:29;16.30;71.80
4596;DHT22;2310;49.978;8.742;2024-03-02T16:44:32;16.10;73.40
4596;DHT22;2310;49.978;8.742;2024-03-02T16:48:34;16.10;73.20
4596;DHT22;2310;49.978;8.742;2024-03-02T16:52:35;16.10;75.30
4596;DHT22;2310;49.978;8.742;2024-03-02T16:56:40;16.00;75.80
4596;DHT22;2310;49.978;8.742;2024-03-02T17:00:41;15.90;76.60
4596;DHT22;2310;49.978;8.742;2024-03-02T17:04:43;15.70;79.20
4596;DHT22;2310;49.978;8.742;2024-03-02T17:08:44;15.50;82.00
4596;DHT22;2310;49.978;8.742;2024-03-02T17:12:46;15.30;85.50
4596;DHT22;2310;49.978;8.742;2024-03-02T17:16:47;15.20;87.80
4596;DHT22;2310;49.978;8.742;2024-03-02T17:20:48;15.10;90.40
4596;DHT22;2310;49.978;8.742;2024-03-02T17:24:50;15.10;91.30
4596;DHT22;2310;49.978;8.742;2024-03-02T17:28:53;14.90;91.70
4596;DHT22;2310;49.978;8.742;2024-03-02T17:32:55;14.80;92.00
4596;DHT22;2310;49.978;8.742;2024-03-02T17:36:57;14.70;90.70
4596;DHT22;2310;49.978;8.742;2024-03-02T17:40:58;14.70;89.70
4596;DHT22;2310;49.978;8.742;2024-03-02T17:45:00;14.50;90.60
4596;DHT22;2310;49.978;8.742;2024-03-02T17:49:01;14.40;89.80
4596;DHT22;2310;49.978;8.742;2024-03-02T17:53:03;14.30;90.50
4596;DHT22;2310;49.978;8.742;2024-03-02T17:57:04;14.20;91.30
4596;DHT22;2310;49.978;8.742;2024-03-02T18:01:05;14.10;91.90
4596;DHT22;2310;49.978;8.742;2024-03-02T18:05:08;14.00;91.90
4596;DHT22;2310;49.978;8.742;2024-03-02T18:09:10;14.00;92.60
4596;DHT22;2310;49.978;8.742;2024-03-02T18:13:11;13.90;91.60
4596;DHT22;2310;49.978;8.742;2024-03-02T18:17:13;13.80;93.00
4596;DHT22;2310;49.978;8.742;2024-03-02T18:21:14;13.80;92.80
4596;DHT22;2310;49.978;8.742;2024-03-02T18:25:15;13.70;93.10
4596;DHT22;2310;49.978;8.742;2024-03-02T18:29:17;13.70;94.60
4596;DHT22;2310;49.978;8.742;2024-03-02T18:33:18;13.60;95.20
4596;DHT22;2310;49.978;8.742;2024-03-02T18:37:19;13.50;96.80
4596;DHT22;2310;49.978;8.742;2024-03-02T18:41:23;13.50;97.30
4596;DHT22;2310;49.978;8.742;2024-03-02T18:45:24;13.50;98.20
4596;DHT22;2310;49.978;8.742;2024-03-02T18:49:26;13.50;99.60
4596;DHT22;2310;49.978;8.742;2024-03-02T18:53:27;13.40;99.90
4596;DHT22;2310;49.978;8.742;2024-03-02T18:57:32;13.30;99.90
4596;DHT22;2310;49.978;8.742;2024-03-02T19:01:34;13.10;99.90
4596;DHT22;2310;49.978;8.742;2024-03-02T19:05:36;13.40;99.90
4596;DHT22;2310;49.978;8.742;2024-03-02T19:09:39;13.40;99.90
4596;DHT22;2310;49.978;8.742;2024-03-02T19:13:41;13.30;99.90
4596;DHT22;2310;49.978;8.742;2024-03-02T19:17:42;13.20;99.90
4596;DHT22;2310;49.978;8.742;2024-03-02T19:21:44;13.00;99.90
4596;DHT22;2310;49.978;8.742;2024-03-02T19:25:48;12.80;99.90
4596;DHT22;2310;49.978;8.742;2024-03-02T19:29:49;12.70;99.90
4596;DHT22;2310;49.978;8.742;2024-03-02T19:33:51;12.80;99.90
4596;DHT22;2310;49.978;8.742;2024-03-02T19:37:52;12.90;99.90
4596;DHT22;2310;49.978;8.742;2024-03-02T19:41:56;12.90;99.90
4596;DHT22;2310;49.978;8.742;2024-03-02T19:45:59;12.90;99.90
4596;DHT22;2310;49.978;8.742;2024-03-02T19:50:00;12.90;99.90
4596;DHT22;2310;49.978;8.742;2024-03-02T19:54:02;12.90;99.90
4596;DHT22;2310;49.978;8.742;2024-03-02T19:58:05;12.90;99.90
4596;DHT22;2310;49.978;8.742;2024-03-02T20:02:07;12.90;99.90
4596;DHT22;2310;49.978;8.742;2024-03-02T20:06:10;12.80;99.90
4596;DHT22;2310;49.978;8.742;2024-03-02T20:10:12;12.90;99.90
4596;DHT22;2310;49.978;8.742;2024-03-02T20:14:14;12.80;99.90
4596;DHT22;2310;49.978;8.742;2024-03-02T20:18:16;12.80;99.90
4596;DHT22;2310;49.978;8.742;2024-03-02T20:22:19;12.80;99.90
4596;DHT22;2310;49.978;8.742;2024-03-02T20:26:20;12.80;99.90
4596;DHT22;2310;49.978;8.742;2024-03-02T20:30:23;12.80;99.90
4596;DHT22;2310;49.978;8.742;2024-03-02T20:34:25;12.80;99.90
4596;DHT22;2310;49.978;8.742;2024-03-02T20:38:26;12.70;99.90
4596;DHT22;2310;49.978;8.742;2024-03-02T20:42:28;12.70;99.90
4596;DHT22;2310;49.978;8.742;2024-03-02T20:46:29;12.70;99.90
4596;DHT22;2310;49.978;8.742;2024-03-02T20:50:30;12.60;99.90
4596;DHT22;2310;49.978;8.742;2024-03-02T20:54:32;12.50;99.90
4596;DHT22;2310;49.978;8.742;2024-03-02T20:58:33;12.50;99.90
4596;DHT22;2310;49.978;8.742;2024-03-02T21:02:34;12.60;99.90
4596;DHT22;2310;49.978;8.742;2024-03-02T21:06:36;12.80;99.90
4596;DHT22;2310;49.978;8.742;2024-03-02T21:10:37;12.80;99.90
4596;DHT22;2310;49.978;8.742;2024-03-02T21:14:39;12.60;99.90
4596;DHT22;2310;49.978;8.742;2024-03-02T21:18:40;12.20;99.90
4596;DHT22;2310;49.978;8.742;2024-03-02T21:22:42;12.00;99.90
4596;DHT22;2310;49.978;8.742;2024-03-02T21:26:45;11.80;99.90
4596;DHT22;2310;49.978;8.742;2024-03-02T21:30:46;11.90;99.90
4596;DHT22;2310;49.978;8.742;2024-03-02T21:34:48;11.70;99.90
4596;DHT22;2310;49.978;8.742;2024-03-02T21:38:49;11.50;99.90
4596;DHT22;2310;49.978;8.742;2024-03-02T21:42:50;11.40;99.90
4596;DHT22;2310;49.978;8.742;2024-03-02T21:46:52;11.30;99.90
4596;DHT22;2310;49.978;8.742;2024-03-02T21:50:53;11.30;99.90
4596;DHT22;2310;49.978;8.742;2024-03-02T21:54:55;11.30;99.90
4596;DHT22;2310;49.978;8.742;2024-03-02T21:58:56;11.20;99.90
4596;DHT22;2310;49.978;8.742;2024-03-02T22:02:57;11.20;99.90
4596;DHT22;2310;49.978;8.742;2024-03-02T22:07:00;11.30;99.90
4596;DHT22;2310;49.978;8.742;2024-03-02T22:11:01;11.30;99.90
4596;DHT22;2310;49.978;8.742;2024-03-02T22:15:03;11.30;99.90
4596;DHT22;2310;49.978;8.742;2024-03-02T22:19:05;11.30;99.90
4596;DHT22;2310;49.978;8.742;2024-03-02T22:23:06;11.30;99.90
4596;DHT22;2310;49.978;8.742;2024-03-02T22:27:08;11.50;99.90
4596;DHT22;2310;49.978;8.742;2024-03-02T22:31:09;11.70;99.90
4596;DHT22;2310;49.978;8.742;2024-03-02T22:35:10;11.80;99.90
4596;DHT22;2310;49.978;8.742;2024-03-02T22:39:12;11.80;99.90
4596;DHT22;2310;49.978;8.742;2024-03-02T22:43:13;11.80;99.90
4596;DHT22;2310;49.978;8.742;2024-03-02T22:47:14;11.70;99.90
4596;DHT22;2310;49.978;8.742;2024-03-02T22:51:21;11.50;99.90
4596;DHT22;2310;49.978;8.742;2024-03-02T22:55:23;11.40;99.90
4596;DHT22;2310;49.978;8.742;2024-03-02T22:59:24;11.30;99.90
4596;DHT22;2310;49.978;8.742;2024-03-02T23:03:26;11.40;99.90
4596;DHT22;2310;49.978;8.742;2024-03-02T23:07:27;11.50;99.90
4596;DHT22;2310;49.978;8.742;2024-03-02T23:11:28;11.40;99.90
4596;DHT22;2310;49.978;8.742;2024-03-02T23:15:30;11.40;99.90
4596;DHT22;2310;49.978;8.742;2024-03-02T23:19:31;11.30;99.90
4596;DHT22;2310;49.978;8.742;2024-03-02T23:23:33;11.20;99.90
4596;DHT22;2310;49.978;8.742;2024-03-02T23:27:34;10.90;99.90
4596;DHT22;2310;49.978;8.742;2024-03-02T23:31:36;11.10;99.90
4596;DHT22;2310;49.978;8.742;2024-03-02T23:35:37;11.20;99.90
4596;DHT22;2310;49.978;8.742;2024-03-02T23:39:39;11.30;99.90
4596;DHT22;2310;49.978;8.742;2024-03-02T23:43:58;11.30;99.90
4596;DHT22;2310;49.978;8.742;2024-03-02T23:48:02;11.30;99.90
4596;DHT22;2310;49.978;8.742;2024-03-02T23:52:04;11.10;99.90
4596;DHT22;2310;49.978;8.742;2024-03-02T23:56:10;11.00;99.90
